Decoded Metar for KPNE (PHILADELPHIA in PA, USA) (IATA:PNE) | Meteo·Mobile Aviation Weather
aviador You're here:

KPNE Decoded Metar

PHILADELPHIA in PA, USA
Report Time2018-09-18 22:54:00
UTC Time2018-09-18 23:34:16
Flight Rules vfr VFR
Wind020° at 08 kt
W.Decomp.*RWY 06: 7.1 kt HW 3.8 kt LCW
RWY 33: 3.8 kt HW 7.1 kt RCW
W.Rank020° ranks 27
Current wind is above 020° avg. (7.5)
Visibility9999 m
Phenomena:N/A
Clouds:N/A
Expected CloudBase > 1,600 ft AGL from Temp-Dew spread
CeilingNone
Temp24°C (ISA +9)
Dew Point20°C (78% RH)
QNH1009 hPa
Density Alt1,601 ft
Elevation92 ft
Report Wrong Elevation
Raw Report
KPNE 182254Z 02008KT 10SM CLR 24/20 A2979 RMK AO2 SLP086
T02440200=

Extra information for KPNE:More info

Metar Taf Metar & Taf Last 4 Metars F.Rules Stats Wind Profile Meteogram Temp Stats Airport Information Weather charts Add Link Nearby VenuesMetar ALERT Operation Metar Decoded Social comments

AIRNAV info for KPNE